Ocean Tomo — 3FID9 — position and weather

sailwx.info

Track history (hours):
 
Tides and Currents Weather Stations Pressure Air Temp Water Temp Dewpoint Dewpoint Depression Visibility Wind Speed Wind Dir Waves Ship Positions

Ocean Tomo

Last reported at 2016-Jun-30 10:34 UTC. Time now 2016-Jun-30 10:39 UTC.
Position N 37°07' E 002°57'.

Length 190 m; draft 6.1 m.

Type: Ship. MMSI: 372951000.

Date/timePositionNaut miles runAvg speedWind from/ knotsBaromVisibWave heightAir tempDewpointWater temp
2016-Jun-30 10:34N 37°07' E 002°57'1313.3
2016-Jun-30 09:33N 37°09' E 003°14'1413.6
2016-Jun-30 08:33N 37°11' E 003°30'2913.8
2016-Jun-30 06:26N 37°16' E 004°07'2512.9
2016-Jun-30 04:30N 37°20' E 004°37'17713.6
2016-Jun-29 15:33N 37°49' E 008°17'1313.4
2016-Jun-29 14:33N 37°51' E 008°34'1413.6
2016-Jun-29 13:30N 37°53' E 008°52'1313.8
2016-Jun-29 12:33N 37°55' E 009°08'1414.0
2016-Jun-29 11:33N 37°58' E 009°26'1413.7
2016-Jun-29 10:33N 37°60' E 009°43'1413.6
2016-Jun-29 09:33N 37°55' E 009°59'1414.0
2016-Jun-29 08:32N 37°49' E 010°15'1413.8
2016-Jun-29 07:33N 37°43' E 010°31'1313.1
2016-Jun-29 06:33N 37°37' E 010°46'1313.0
2016-Jun-29 05:33N 37°32' E 011°01'1313.4
2016-Jun-29 04:33N 37°26' E 011°16'1312.8
2016-Jun-29 03:33N 37°20' E 011°30'1212.4
2016-Jun-29 02:33N 37°14' E 011°44'4512.8
2016-Jun-28 23:03N 36°56' E 012°35'2512.8
2016-Jun-28 21:07N 36°45' E 013°03'712.5
2016-Jun-28 20:33N 36°42' E 013°11'1212.1
2016-Jun-28 19:33N 36°37' E 013°25'1212.0
2016-Jun-28 18:33N 36°32' E 013°38'1211.9
2016-Jun-28 17:33N 36°27' E 013°52'1211.7
2016-Jun-28 16:33N 36°21' E 014°05'1212.1
2016-Jun-28 15:33N 36°16' E 014°18'1313.0
2016-Jun-28 14:33N 36°11' E 014°33'1312.7
2016-Jun-28 13:33N 36°07' E 014°48'1312.7
2016-Jun-28 12:33N 36°05' E 015°03'1312.5
2016-Jun-28 11:33N 36°02' E 015°19'5212.9
2016-Jun-28 07:33N 35°51' E 016°21'1313.4
2016-Jun-28 06:33N 35°49' E 016°37'2613.1
2016-Jun-28 04:33N 35°43' E 017°09'1313.2
2016-Jun-28 03:33N 35°41' E 017°25'1413.6
2016-Jun-28 02:33N 35°38' E 017°41'1913.9
2016-Jun-28 01:11N 35°33' E 018°04'914.0
2016-Jun-28 00:33N 35°31' E 018°14'1414.2
2016-Jun-27 23:33N 35°29' E 018°32'  
2016-Jun-25 11:34N 36°06' E 034°15'1414.0
2016-Jun-25 10:33N 36°10' E 034°31'1414.1
2016-Jun-25 09:33N 36°13' E 034°48'1414.0
2016-Jun-25 08:34N 36°18' E 035°05'1413.9
2016-Jun-25 07:34N 36°22' E 035°21'  
Track history (hours):
 
Tides and Currents Weather Stations Pressure Air Temp Water Temp Dewpoint Dewpoint Depression Visibility Wind Speed Wind Dir Waves Ship Positions

Ocean Tomo

Last reported at 2016-Jun-30 10:34 UTC. Time now 2016-Jun-30 10:39 UTC.
Position N 37°07' E 002°57'.

Length 190 m; draft 6.1 m.

Type: Ship. MMSI: 372951000.

Date/timePositionNaut miles runAvg speedWind from/ knotsBaromVisibWave heightAir tempDewpointWater temp
2016-Jun-30 10:34N 37°07' E 002°57'1313.3
2016-Jun-30 09:33N 37°09' E 003°14'1413.6
2016-Jun-30 08:33N 37°11' E 003°30'2913.8
2016-Jun-30 06:26N 37°16' E 004°07'2512.9
2016-Jun-30 04:30N 37°20' E 004°37'17713.6
2016-Jun-29 15:33N 37°49' E 008°17'1313.4
2016-Jun-29 14:33N 37°51' E 008°34'1413.6
2016-Jun-29 13:30N 37°53' E 008°52'1313.8
2016-Jun-29 12:33N 37°55' E 009°08'1414.0
2016-Jun-29 11:33N 37°58' E 009°26'1413.7
2016-Jun-29 10:33N 37°60' E 009°43'1413.6
2016-Jun-29 09:33N 37°55' E 009°59'1414.0
2016-Jun-29 08:32N 37°49' E 010°15'1413.8
2016-Jun-29 07:33N 37°43' E 010°31'1313.1
2016-Jun-29 06:33N 37°37' E 010°46'1313.0
2016-Jun-29 05:33N 37°32' E 011°01'1313.4
2016-Jun-29 04:33N 37°26' E 011°16'1312.8
2016-Jun-29 03:33N 37°20' E 011°30'1212.4
2016-Jun-29 02:33N 37°14' E 011°44'4512.8
2016-Jun-28 23:03N 36°56' E 012°35'2512.8
2016-Jun-28 21:07N 36°45' E 013°03'712.5
2016-Jun-28 20:33N 36°42' E 013°11'1212.1
2016-Jun-28 19:33N 36°37' E 013°25'1212.0
2016-Jun-28 18:33N 36°32' E 013°38'1211.9
2016-Jun-28 17:33N 36°27' E 013°52'1211.7
2016-Jun-28 16:33N 36°21' E 014°05'1212.1
2016-Jun-28 15:33N 36°16' E 014°18'1313.0
2016-Jun-28 14:33N 36°11' E 014°33'1312.7
2016-Jun-28 13:33N 36°07' E 014°48'1312.7
2016-Jun-28 12:33N 36°05' E 015°03'1312.5
2016-Jun-28 11:33N 36°02' E 015°19'5212.9
2016-Jun-28 07:33N 35°51' E 016°21'1313.4
2016-Jun-28 06:33N 35°49' E 016°37'2613.1
2016-Jun-28 04:33N 35°43' E 017°09'1313.2
2016-Jun-28 03:33N 35°41' E 017°25'1413.6
2016-Jun-28 02:33N 35°38' E 017°41'1913.9
2016-Jun-28 01:11N 35°33' E 018°04'914.0
2016-Jun-28 00:33N 35°31' E 018°14'1414.2
2016-Jun-27 23:33N 35°29' E 018°32'  
2016-Jun-25 11:34N 36°06' E 034°15'1414.0
2016-Jun-25 10:33N 36°10' E 034°31'1414.1
2016-Jun-25 09:33N 36°13' E 034°48'1414.0
2016-Jun-25 08:34N 36°18' E 035°05'1413.9
2016-Jun-25 07:34N 36°22' E 035°21'  

Dump ship's entire track history